Time;durP1;ratioP1;P1;durP2;ratioP2;P2;SDS_P1;SDS_P2;PMS_P1;PMS_P2;Temp;Humidity;BMP_temperature;BMP_pressure;BME280_temperature;BME280_humidity;BME280_pressure;Samples;Min_cycle;Max_cycle;Signal;HPM_P1;HPM_P2
2022/06/26 00:03:37;;;;;;;2.10;1.87;;;21.80;95.20;;;;;;10329541;28;20599;-66
2022/06/26 00:08:38;;;;;;;3.50;1.37;;;21.60;97.90;;;;;;10336133;28;20218;-66
2022/06/26 00:13:39;;;;;;;1.97;1.50;;;21.50;99.90;;;;;;10353292;28;20213;-66
2022/06/26 00:18:41;;;;;;;2.43;1.10;;;21.30;99.90;;;;;;10349121;28;20580;-66
2022/06/26 00:23:42;;;;;;;1.87;1.13;;;21.20;99.90;;;;;;10333291;28;20225;-66
2022/06/26 00:28:42;;;;;;;5.57;1.27;;;21.00;99.90;;;;;;10354731;28;20224;-66
2022/06/26 00:33:43;;;;;;;1.33;1.03;;;20.90;99.90;;;;;;10346795;28;20685;-66
2022/06/26 00:38:43;;;;;;;1.70;0.70;;;20.80;99.90;;;;;;10337944;28;20228;-66
2022/06/26 00:43:44;;;;;;;1.23;0.83;;;20.80;99.90;;;;;;10348584;28;20249;-67
2022/06/26 00:48:44;;;;;;;3.23;1.00;;;20.80;99.90;;;;;;10343364;28;20232;-67
2022/06/26 00:53:45;;;;;;;0.77;0.77;;;20.90;99.90;;;;;;10338418;28;20275;-66
2022/06/26 00:58:46;;;;;;;1.43;1.00;;;20.90;99.90;;;;;;10342052;28;20235;-66
2022/06/26 01:03:46;;;;;;;3.13;1.10;;;20.80;99.90;;;;;;10333328;28;20210;-65
2022/06/26 01:08:47;;;;;;;0.80;0.60;;;20.90;99.90;;;;;;10346275;28;20263;-65
2022/06/26 01:13:51;;;;;;;2.20;0.90;;;20.90;99.90;;;;;;10353644;28;20289;-65
2022/06/26 01:18:53;;;;;;;2.03;1.00;;;20.90;99.90;;;;;;10334444;28;20206;-66
2022/06/26 01:23:55;;;;;;;0.90;0.90;;;20.80;99.90;;;;;;10352554;28;20222;-66
2022/06/26 01:28:55;;;;;;;3.43;1.10;;;20.80;99.90;;;;;;10343757;28;20309;-67
2022/06/26 01:34:01;;;;;;;3.17;0.87;;;20.70;99.90;;;;;;10321342;28;20219;-65
2022/06/26 01:39:03;;;;;;;3.97;0.97;;;20.70;99.90;;;;;;10334905;28;20225;-65
2022/06/26 01:44:07;;;;;;;1.20;0.90;;;20.70;99.90;;;;;;10349195;28;20321;-66
2022/06/26 01:49:07;;;;;;;2.70;1.40;;;20.60;99.90;;;;;;10333863;28;20673;-65
2022/06/26 01:54:12;;;;;;;1.90;0.80;;;20.50;99.90;;;;;;10332305;28;20220;-65
2022/06/26 01:59:13;;;;;;;1.07;1.07;;;20.60;99.90;;;;;;10337859;28;20221;-65
2022/06/26 02:04:16;;;;;;;1.40;1.30;;;20.50;99.90;;;;;;10341558;28;20228;-65
2022/06/26 02:14:35;;;;;;;2.60;1.13;;;20.50;99.90;;;;;;10339737;28;20217;-66
2022/06/26 02:19:36;;;;;;;1.50;1.00;;;20.50;99.90;;;;;;10341752;28;20683;-65
2022/06/26 02:24:39;;;;;;;4.93;1.03;;;20.50;99.90;;;;;;10340991;28;20696;-65
2022/06/26 02:29:40;;;;;;;3.83;1.17;;;20.50;99.90;;;;;;10342578;28;20209;-65
2022/06/26 02:34:40;;;;;;;1.10;1.00;;;20.40;99.90;;;;;;10326736;28;20269;-64
2022/06/26 02:39:41;;;;;;;2.53;1.33;;;20.30;99.90;;;;;;10348077;28;20249;-66
2022/06/26 02:44:41;;;;;;;1.80;1.07;;;20.30;99.90;;;;;;10352662;28;20252;-65
2022/06/26 02:49:42;;;;;;;1.70;1.03;;;20.30;99.90;;;;;;10336454;28;20635;-65
2022/06/26 02:54:43;;;;;;;3.30;1.00;;;20.30;99.90;;;;;;10367262;28;20217;-66
2022/06/26 02:59:43;;;;;;;1.20;1.10;;;20.30;99.90;;;;;;10341084;28;20708;-66
2022/06/26 03:04:44;;;;;;;2.10;0.90;;;20.30;99.90;;;;;;10351010;28;20498;-65
2022/06/26 03:09:44;;;;;;;3.07;1.30;;;20.30;99.90;;;;;;10357848;28;20360;-65
2022/06/26 03:14:45;;;;;;;1.00;0.90;;;20.30;99.90;;;;;;10343052;28;20213;-67
2022/06/26 03:19:48;;;;;;;1.13;1.10;;;20.40;99.90;;;;;;10353816;28;20308;-65
2022/06/26 03:24:49;;;;;;;2.63;0.90;;;20.40;99.90;;;;;;10343115;28;20218;-66
2022/06/26 03:29:49;;;;;;;1.63;1.17;;;20.30;99.90;;;;;;10352995;28;20213;-65
2022/06/26 03:34:50;;;;;;;3.03;0.90;;;20.20;99.90;;;;;;10342723;28;20217;-65
2022/06/26 03:39:51;;;;;;;1.10;1.00;;;20.30;99.90;;;;;;10332485;28;20214;-65
2022/06/26 03:44:51;;;;;;;1.97;1.37;;;20.30;99.90;;;;;;10326960;28;20260;-65
2022/06/26 03:49:53;;;;;;;5.17;1.33;;;20.40;99.90;;;;;;10349183;28;20228;-65
2022/06/26 03:54:54;;;;;;;2.30;1.63;;;20.50;99.90;;;;;;10346547;28;20252;-65
2022/06/26 03:59:55;;;;;;;1.60;1.50;;;20.60;99.90;;;;;;10349868;28;21058;-65
2022/06/26 04:04:56;;;;;;;1.30;1.00;;;20.70;99.90;;;;;;10346114;28;20268;-65
2022/06/26 04:09:59;;;;;;;2.10;1.23;;;20.70;99.90;;;;;;10338847;28;20237;-66
2022/06/26 04:15:03;;;;;;;2.20;1.23;;;20.70;99.90;;;;;;10348357;28;20733;-64
2022/06/26 04:20:05;;;;;;;2.47;1.30;;;20.60;99.90;;;;;;10346204;28;20593;-65
2022/06/26 04:25:06;;;;;;;4.20;1.10;;;20.60;99.90;;;;;;10351681;28;20217;-65
2022/06/26 04:30:07;;;;;;;3.57;1.17;;;20.70;99.90;;;;;;10342392;28;20189;-66
2022/06/26 04:35:09;;;;;;;1.30;1.20;;;20.70;99.90;;;;;;10335328;28;20186;-65
2022/06/26 04:40:11;;;;;;;1.40;1.30;;;20.70;99.90;;;;;;10350794;28;20325;-64
2022/06/26 04:45:12;;;;;;;2.00;1.20;;;20.80;99.90;;;;;;10318501;28;20681;-65
2022/06/26 04:50:13;;;;;;;1.30;1.20;;;20.90;99.90;;;;;;10349603;28;20209;-65
2022/06/26 04:55:14;;;;;;;1.10;1.00;;;20.80;99.90;;;;;;10334811;28;20216;-65
2022/06/26 05:00:15;;;;;;;2.53;1.07;;;20.90;99.90;;;;;;10350543;28;20182;-65
2022/06/26 05:05:15;;;;;;;3.43;1.40;;;21.00;99.90;;;;;;10325691;28;20855;-65
2022/06/26 05:10:16;;;;;;;2.33;1.20;;;21.10;99.90;;;;;;10348387;28;20197;-66
2022/06/26 05:15:17;;;;;;;5.70;1.30;;;21.10;99.90;;;;;;10343626;28;20245;-66
2022/06/26 05:20:18;;;;;;;1.80;1.33;;;21.20;99.90;;;;;;10336125;28;20822;-66
2022/06/26 05:25:19;;;;;;;1.43;1.03;;;24.00;99.90;;;;;;10335721;28;20215;-67
2022/06/26 05:30:19;;;;;;;2.50;1.20;;;27.10;99.90;;;;;;10350779;28;20658;-66
2022/06/26 05:35:20;;;;;;;1.33;1.00;;;28.60;99.90;;;;;;10322644;28;20294;-67
2022/06/26 05:40:21;;;;;;;2.27;1.43;;;27.50;99.90;;;;;;10350014;28;20200;-67
2022/06/26 05:45:21;;;;;;;2.93;1.00;;;26.60;99.90;;;;;;10329178;28;20216;-67
2022/06/26 05:50:25;;;;;;;1.30;0.90;;;29.20;98.00;;;;;;10350408;28;20583;-67
2022/06/26 05:55:26;;;;;;;2.13;1.13;;;32.10;87.20;;;;;;10334013;28;20678;-66
2022/06/26 06:00:26;;;;;;;1.53;1.00;;;31.40;76.70;;;;;;10338584;28;20225;-66
2022/06/26 06:05:30;;;;;;;1.13;1.00;;;29.10;84.00;;;;;;10326178;28;20236;-66
2022/06/26 06:10:34;;;;;;;1.73;1.00;;;27.70;90.80;;;;;;10339359;28;20225;-66
2022/06/26 06:15:34;;;;;;;1.67;1.10;;;27.20;93.90;;;;;;10326300;28;20284;-65
2022/06/26 06:20:35;;;;;;;1.20;1.07;;;29.10;91.90;;;;;;10345286;28;20229;-67
2022/06/26 06:25:36;;;;;;;0.97;0.97;;;32.10;81.10;;;;;;10329849;28;20244;-67
2022/06/26 06:30:36;;;;;;;1.80;0.90;;;34.20;64.90;;;;;;10337767;28;20663;-66
2022/06/26 06:35:37;;;;;;;2.00;1.00;;;35.40;55.80;;;;;;10327630;28;20240;-66
2022/06/26 06:40:38;;;;;;;3.07;1.03;;;36.30;52.20;;;;;;10346083;28;20224;-66
2022/06/26 06:45:38;;;;;;;1.53;0.93;;;37.60;49.50;;;;;;10321591;28;20652;-66
2022/06/26 06:50:39;;;;;;;2.67;1.10;;;38.30;46.30;;;;;;10343581;28;20271;-67
2022/06/26 06:55:40;;;;;;;2.37;1.10;;;38.80;44.90;;;;;;10310987;28;20847;-67
2022/06/26 07:00:40;;;;;;;1.67;1.20;;;38.10;44.10;;;;;;10344003;28;20304;-67
2022/06/26 07:05:41;;;;;;;1.73;1.10;;;38.40;44.20;;;;;;10327710;28;20244;-67
2022/06/26 07:10:42;;;;;;;1.57;1.10;;;38.20;44.40;;;;;;10346994;28;20220;-67
2022/06/26 07:15:42;;;;;;;1.77;1.10;;;38.40;43.40;;;;;;10336759;28;20232;-67
2022/06/26 07:20:43;;;;;;;2.40;1.13;;;38.50;42.30;;;;;;10337087;28;20264;-67
2022/06/26 07:25:43;;;;;;;1.50;0.90;;;39.00;41.60;;;;;;10342628;28;20264;-66
2022/06/26 07:30:44;;;;;;;3.90;1.00;;;38.40;41.00;;;;;;10361793;28;20316;-66
2022/06/26 07:35:45;;;;;;;2.67;0.97;;;34.90;47.80;;;;;;10333934;28;20708;-66
2022/06/26 07:40:45;;;;;;;2.70;1.10;;;33.70;50.90;;;;;;10358013;28;20221;-68
2022/06/26 07:45:47;;;;;;;2.97;1.10;;;35.60;47.20;;;;;;10331645;28;20241;-66
2022/06/26 07:50:48;;;;;;;1.43;0.97;;;37.90;44.20;;;;;;10349755;28;20236;-66
2022/06/26 07:55:48;;;;;;;1.63;1.10;;;39.30;41.20;;;;;;10349448;28;20592;-69
2022/06/26 08:00:49;;;;;;;2.20;1.30;;;39.80;39.90;;;;;;10353643;28;20267;-67
2022/06/26 08:05:50;;;;;;;0.90;0.90;;;40.60;38.70;;;;;;10331866;28;20237;-67
2022/06/26 08:10:50;;;;;;;2.10;1.20;;;41.40;37.40;;;;;;10340497;28;20244;-68
2022/06/26 08:15:51;;;;;;;1.20;1.10;;;42.20;36.00;;;;;;10335272;28;20248;-66
2022/06/26 08:20:51;;;;;;;1.47;1.03;;;42.50;34.90;;;;;;10348818;28;20701;-67
2022/06/26 08:25:52;;;;;;;1.15;0.88;;;43.10;34.40;;;;;;10338024;28;20344;-67
2022/06/26 08:30:53;;;;;;;1.83;1.10;;;43.30;33.50;;;;;;10337719;28;20226;-67
2022/06/26 08:35:53;;;;;;;0.90;0.80;;;43.70;32.70;;;;;;10340839;28;20233;-66
2022/06/26 08:41:01;;;;;;;1.40;1.00;;;43.30;33.10;;;;;;10346061;28;20276;-67
2022/06/26 08:46:04;;;;;;;0.90;0.70;;;43.40;33.20;;;;;;10342720;28;20288;-66
2022/06/26 08:51:05;;;;;;;1.83;1.10;;;43.50;33.30;;;;;;10346650;28;20246;-66
2022/06/26 08:56:06;;;;;;;1.75;0.90;;;44.30;31.70;;;;;;10328389;28;20233;-66
2022/06/26 09:01:07;;;;;;;0.88;0.80;;;44.40;32.80;;;;;;10338696;28;20222;-66
2022/06/26 09:06:11;;;;;;;1.00;0.88;;;45.70;30.30;;;;;;10336072;28;20333;-67
2022/06/26 09:11:12;;;;;;;0.90;0.90;;;46.00;29.90;;;;;;10342211;28;20233;-66
2022/06/26 09:16:14;;;;;;;1.30;1.02;;;46.60;29.00;;;;;;10331010;28;20233;-68
2022/06/26 09:21:18;;;;;;;2.08;0.68;;;46.10;28.70;;;;;;10334673;28;20233;-68
2022/06/26 09:26:19;;;;;;;1.30;0.80;;;45.00;29.50;;;;;;10341849;28;20755;-67
2022/06/26 09:31:21;;;;;;;0.70;0.70;;;45.50;29.10;;;;;;10336665;28;20348;-67
2022/06/26 09:36:24;;;;;;;1.70;1.20;;;46.60;27.70;;;;;;10324024;28;20272;-66
2022/06/26 09:41:34;;;;;;;1.05;0.95;;;46.50;28.00;;;;;;10328941;28;20217;-67
2022/06/26 09:46:35;;;;;;;2.05;1.00;;;46.80;27.50;;;;;;10326020;28;20921;-67
2022/06/26 09:51:37;;;;;;;0.70;0.70;;;46.60;26.90;;;;;;10328207;28;20228;-67
2022/06/26 09:56:38;;;;;;;1.10;0.90;;;45.40;27.50;;;;;;10315900;28;20241;-67
2022/06/26 10:07:01;;;;;;;0.80;0.80;;;48.00;27.30;;;;;;10338818;28;20225;-67
2022/06/26 10:12:03;;;;;;;1.75;1.10;;;47.90;26.70;;;;;;10330897;28;20313;-66
2022/06/26 10:17:26;;;;;;;1.15;0.90;;;48.10;26.60;;;;;;10341331;28;20480;-67
2022/06/26 10:22:37;;;;;;;1.15;1.05;;;48.20;26.40;;;;;;10347143;28;20675;-66
2022/06/26 10:27:39;;;;;;;0.88;0.88;;;47.40;26.60;;;;;;10308878;28;20782;-66
2022/06/26 10:32:40;;;;;;;1.25;0.90;;;47.60;26.40;;;;;;10318879;28;20321;-66
2022/06/26 10:37:43;;;;;;;0.80;0.80;;;47.40;26.30;;;;;;10340165;28;20226;-66
2022/06/26 10:42:54;;;;;;;1.25;0.75;;;47.70;25.90;;;;;;10328947;28;20248;-67
2022/06/26 10:48:00;;;;;;;0.70;0.70;;;47.10;26.00;;;;;;10329696;28;20238;-67
2022/06/26 10:53:14;;;;;;;1.13;0.70;;;47.50;26.10;;;;;;10326304;28;20229;-67
2022/06/26 10:58:27;;;;;;;0.70;0.70;;;47.50;26.10;;;;;;10334415;28;20236;-66
2022/06/26 11:03:30;;;;;;;1.05;0.82;;;48.00;25.60;;;;;;10356812;28;20625;-68
2022/06/26 11:08:35;;;;;;;1.75;0.73;;;47.50;25.60;;;;;;10331393;28;20641;-67
2022/06/26 11:13:47;;;;;;;2.45;1.05;;;48.30;25.70;;;;;;10323624;28;20656;-67
2022/06/26 11:18:47;;;;;;;2.20;0.80;;;47.30;25.20;;;;;;10341933;28;20226;-65
2022/06/26 11:23:51;;;;;;;1.10;0.80;;;45.00;28.10;;;;;;10351024;28;20225;-67
2022/06/26 11:29:00;;;;;;;0.90;0.80;;;43.20;28.60;;;;;;10328773;28;20236;-66
2022/06/26 11:34:14;;;;;;;0.80;0.50;;;40.50;31.90;;;;;;10345802;28;20280;-67
2022/06/26 11:39:15;;;;;;;1.20;0.60;;;38.90;34.90;;;;;;10341607;28;20271;-66
2022/06/26 11:44:16;;;;;;;0.63;0.50;;;38.90;34.50;;;;;;10347397;28;20889;-66
2022/06/26 11:49:24;;;;;;;1.80;0.90;;;38.10;35.10;;;;;;10325967;28;20266;-66
2022/06/26 11:54:25;;;;;;;1.53;0.83;;;37.30;36.30;;;;;;10349295;28;20224;-67
2022/06/26 11:59:26;;;;;;;3.73;1.03;;;36.60;37.40;;;;;;10347238;28;20283;-66
2022/06/26 12:04:27;;;;;;;0.73;0.73;;;35.80;38.90;;;;;;10347140;28;20228;-67
2022/06/26 12:09:28;;;;;;;2.37;0.97;;;35.50;38.60;;;;;;10349834;28;20252;-66
2022/06/26 12:14:28;;;;;;;1.40;0.90;;;35.50;39.00;;;;;;10334881;28;20222;-66
2022/06/26 12:19:38;;;;;;;0.80;0.80;;;35.40;38.90;;;;;;10345605;28;20222;-66
2022/06/26 12:24:52;;;;;;;0.87;0.67;;;35.50;39.00;;;;;;10336135;28;20233;-66
2022/06/26 12:29:53;;;;;;;1.63;0.73;;;34.90;40.60;;;;;;10338774;28;20252;-67
2022/06/26 12:34:53;;;;;;;0.90;0.90;;;34.80;41.50;;;;;;10335179;28;20257;-67
2022/06/26 12:39:54;;;;;;;0.87;0.70;;;35.00;40.10;;;;;;10346724;28;20252;-66
2022/06/26 12:44:55;;;;;;;6.70;1.20;;;34.90;40.50;;;;;;10318048;28;20232;-66
2022/06/26 12:49:55;;;;;;;3.30;0.90;;;34.60;42.00;;;;;;10346049;28;20228;-71
2022/06/26 12:54:56;;;;;;;1.43;0.73;;;34.20;41.60;;;;;;10338409;28;20237;-66
2022/06/26 12:59:57;;;;;;;0.77;0.73;;;33.50;43.20;;;;;;10334956;28;20280;-66
2022/06/26 13:04:57;;;;;;;2.10;0.73;;;33.40;44.90;;;;;;10335703;28;20230;-65
2022/06/26 13:09:58;;;;;;;0.83;0.60;;;33.40;44.30;;;;;;10337937;28;20574;-66
2022/06/26 13:14:59;;;;;;;2.97;0.90;;;33.60;43.80;;;;;;10340425;28;20282;-66
2022/06/26 13:19:59;;;;;;;2.53;0.80;;;33.60;43.70;;;;;;10347368;28;20699;-70
2022/06/26 13:25:00;;;;;;;1.70;0.90;;;33.40;43.90;;;;;;10343425;28;20314;-67
2022/06/26 13:30:01;;;;;;;3.23;1.17;;;33.50;43.50;;;;;;10348127;28;20995;-66
2022/06/26 13:35:04;;;;;;;2.03;0.90;;;33.80;43.60;;;;;;10322610;28;20227;-66
2022/06/26 13:40:06;;;;;;;1.60;1.23;;;34.00;43.70;;;;;;10343537;28;20233;-67
2022/06/26 13:45:07;;;;;;;2.90;1.17;;;34.10;43.00;;;;;;10333513;28;20269;-66
2022/06/26 13:50:11;;;;;;;1.07;0.80;;;34.00;42.90;;;;;;10346898;28;20213;-66
2022/06/26 13:55:12;;;;;;;0.90;0.60;;;33.40;43.70;;;;;;10345388;28;20664;-67
2022/06/26 14:00:12;;;;;;;0.90;0.90;;;32.80;44.00;;;;;;10330272;28;20210;-66
2022/06/26 14:05:13;;;;;;;0.97;0.87;;;32.70;44.40;;;;;;10340031;28;20205;-66
2022/06/26 14:10:14;;;;;;;1.17;0.70;;;32.70;44.70;;;;;;10343882;28;20232;-66
2022/06/26 14:15:15;;;;;;;1.50;0.80;;;32.60;44.20;;;;;;10335363;28;20190;-66
2022/06/26 14:20:16;;;;;;;2.70;0.77;;;33.00;44.00;;;;;;10332978;28;20186;-67
2022/06/26 14:30:36;;;;;;;1.10;1.00;;;32.70;44.10;;;;;;10336270;28;20218;-66
2022/06/26 14:35:37;;;;;;;8.63;1.83;;;31.80;45.30;;;;;;10321926;28;20685;-67
2022/06/26 14:40:38;;;;;;;0.90;0.90;;;32.00;45.40;;;;;;10329833;28;20223;-67
2022/06/26 14:45:39;;;;;;;1.23;0.80;;;31.60;46.00;;;;;;10333540;28;20233;-67
2022/06/26 14:50:41;;;;;;;2.10;1.37;;;31.80;45.80;;;;;;10324615;28;20229;-66
2022/06/26 14:55:43;;;;;;;1.60;0.87;;;31.90;45.90;;;;;;10307816;28;20225;-67
2022/06/26 15:00:44;;;;;;;1.43;0.90;;;31.80;46.70;;;;;;10322035;28;20218;-66
2022/06/26 15:05:49;;;;;;;1.83;0.80;;;31.40;47.40;;;;;;10341682;28;20714;-66
2022/06/26 15:10:50;;;;;;;2.70;1.07;;;31.20;48.00;;;;;;10330241;28;20252;-66
2022/06/26 15:15:50;;;;;;;2.07;1.00;;;31.10;48.20;;;;;;10341333;28;20284;-67
2022/06/26 15:20:52;;;;;;;2.40;1.00;;;31.50;47.50;;;;;;10322896;28;20275;-67
2022/06/26 15:25:53;;;;;;;1.17;1.07;;;31.70;47.00;;;;;;10339193;28;20271;-67
2022/06/26 15:30:53;;;;;;;1.17;1.10;;;31.70;46.90;;;;;;10330147;28;20272;-67
2022/06/26 15:35:54;;;;;;;1.03;0.93;;;31.60;47.50;;;;;;10335374;28;20225;-67
2022/06/26 15:40:55;;;;;;;1.20;0.97;;;31.50;47.70;;;;;;10340942;28;20239;-67
2022/06/26 15:45:58;;;;;;;2.30;1.00;;;31.40;47.90;;;;;;10341434;28;20236;-67
2022/06/26 15:51:00;;;;;;;1.23;0.80;;;31.30;48.50;;;;;;10340208;28;20234;-67
2022/06/26 15:56:00;;;;;;;3.70;1.00;;;31.10;49.40;;;;;;10341882;28;20225;-67
2022/06/26 16:01:02;;;;;;;0.80;0.80;;;30.70;50.80;;;;;;10341156;28;20227;-67
2022/06/26 16:06:02;;;;;;;1.07;0.97;;;30.40;51.60;;;;;;10338723;28;20263;-67
2022/06/26 16:11:04;;;;;;;1.77;1.27;;;30.10;52.70;;;;;;10351902;28;20309;-68
2022/06/26 16:16:05;;;;;;;2.20;0.90;;;29.90;54.60;;;;;;10337760;28;20335;-66
2022/06/26 16:21:06;;;;;;;1.23;1.00;;;29.50;55.80;;;;;;10333255;28;20507;-66
2022/06/26 16:26:26;;;;;;;1.93;1.00;;;29.40;56.70;;;;;;10330550;28;20239;-67
2022/06/26 16:31:29;;;;;;;2.07;1.10;;;29.20;57.10;;;;;;10322272;28;20816;-66
2022/06/26 16:36:31;;;;;;;7.83;1.60;;;29.00;57.70;;;;;;10344318;28;20230;-66
2022/06/26 16:41:31;;;;;;;2.57;2.33;;;28.80;58.40;;;;;;10343052;28;20209;-68
2022/06/26 16:46:32;;;;;;;2.33;1.40;;;28.60;58.80;;;;;;10335080;28;20233;-67
2022/06/26 16:51:33;;;;;;;2.37;1.40;;;28.60;59.10;;;;;;10352915;28;20226;-66
2022/06/26 16:56:33;;;;;;;3.67;1.40;;;28.50;60.20;;;;;;10346946;28;20357;-67
2022/06/26 17:01:34;;;;;;;2.77;1.60;;;28.30;60.40;;;;;;10337006;28;20716;-66
2022/06/26 17:06:35;;;;;;;2.20;1.50;;;28.10;61.10;;;;;;10345744;28;20647;-66
2022/06/26 17:11:36;;;;;;;1.30;1.20;;;27.90;61.10;;;;;;10338129;28;20655;-67
2022/06/26 17:16:36;;;;;;;2.10;1.40;;;27.70;62.00;;;;;;10339381;28;20294;-67
2022/06/26 17:21:37;;;;;;;5.20;1.87;;;27.60;62.40;;;;;;10355210;28;20224;-67
2022/06/26 17:26:38;;;;;;;2.10;1.60;;;27.50;63.30;;;;;;10348922;28;20765;-67
2022/06/26 17:31:39;;;;;;;5.47;1.60;;;27.50;63.90;;;;;;10338871;28;20224;-67
2022/06/26 17:36:40;;;;;;;1.67;1.20;;;27.30;64.80;;;;;;10343645;28;20236;-67
2022/06/26 17:41:41;;;;;;;4.17;1.80;;;27.10;65.80;;;;;;10313644;28;20304;-66
2022/06/26 17:46:41;;;;;;;3.67;1.73;;;27.10;66.60;;;;;;10316639;28;20312;-66
2022/06/26 17:51:42;;;;;;;3.33;1.50;;;27.20;67.20;;;;;;10347310;28;20233;-66
2022/06/26 17:56:43;;;;;;;5.20;1.87;;;27.30;67.30;;;;;;10339811;28;20236;-67
2022/06/26 18:01:43;;;;;;;2.50;1.50;;;27.40;67.00;;;;;;10339375;28;20225;-66
2022/06/26 18:06:49;;;;;;;6.47;1.70;;;27.40;67.00;;;;;;10343736;28;20234;-66
2022/06/26 18:11:50;;;;;;;3.00;1.87;;;27.40;67.00;;;;;;10360035;28;20220;-67
2022/06/26 18:16:50;;;;;;;2.50;1.77;;;27.40;67.30;;;;;;10337262;28;20739;-68
2022/06/26 18:21:51;;;;;;;4.40;1.83;;;27.20;68.10;;;;;;10337030;28;20662;-67
2022/06/26 18:26:52;;;;;;;1.70;1.60;;;27.10;68.60;;;;;;10334978;28;20233;-67
2022/06/26 18:31:53;;;;;;;3.63;1.40;;;27.00;66.20;;;;;;10313786;28;20228;-67
2022/06/26 18:36:54;;;;;;;3.90;1.50;;;26.70;66.80;;;;;;10322973;28;20805;-66
2022/06/26 18:41:55;;;;;;;2.70;1.30;;;26.60;67.90;;;;;;10340171;28;20233;-67
2022/06/26 18:46:57;;;;;;;1.97;1.40;;;26.40;68.70;;;;;;10344021;28;20769;-67
2022/06/26 18:51:58;;;;;;;3.63;1.70;;;26.40;69.50;;;;;;10314087;28;20243;-69
2022/06/26 18:56:58;;;;;;;3.03;1.80;;;26.40;70.70;;;;;;10345315;28;20708;-68
2022/06/26 19:02:00;;;;;;;3.17;1.90;;;26.40;72.50;;;;;;10336627;28;20229;-68
2022/06/26 19:07:04;;;;;;;2.37;1.87;;;26.30;71.90;;;;;;10330945;28;20232;-66
2022/06/26 19:17:24;;;;;;;2.60;2.30;;;25.80;73.70;;;;;;10339796;28;20272;-67
2022/06/26 19:22:26;;;;;;;2.47;2.20;;;25.60;74.70;;;;;;10344707;28;20328;-66
2022/06/26 19:27:27;;;;;;;2.90;2.00;;;25.50;75.80;;;;;;10358324;28;20660;-68
2022/06/26 19:32:27;;;;;;;2.80;2.50;;;25.40;76.40;;;;;;10325745;28;20256;-67
2022/06/26 19:37:28;;;;;;;3.03;2.40;;;25.20;77.10;;;;;;10344918;28;20682;-67
2022/06/26 19:42:29;;;;;;;2.80;2.50;;;25.00;78.20;;;;;;10351511;28;20259;-66
2022/06/26 19:47:31;;;;;;;2.77;2.50;;;24.90;79.20;;;;;;10341617;28;20304;-69
2022/06/26 19:52:32;;;;;;;4.90;2.30;;;24.80;79.80;;;;;;10337283;28;20360;-68
2022/06/26 19:57:33;;;;;;;2.80;2.60;;;24.70;80.40;;;;;;10327237;28;20255;-69
2022/06/26 20:02:35;;;;;;;2.67;2.47;;;24.60;81.30;;;;;;10346842;28;20217;-68
2022/06/26 20:07:37;;;;;;;2.83;2.63;;;24.60;82.20;;;;;;10336480;28;20237;-67
2022/06/26 20:12:38;;;;;;;2.80;2.60;;;24.50;83.20;;;;;;10346714;28;20227;-68
2022/06/26 20:17:39;;;;;;;3.93;2.73;;;24.40;84.10;;;;;;10350548;28;20222;-69
2022/06/26 20:22:39;;;;;;;7.40;3.57;;;24.40;85.10;;;;;;10342822;28;20264;-69
2022/06/26 20:27:40;;;;;;;3.43;2.60;;;24.30;86.10;;;;;;10339069;28;20239;-69
2022/06/26 20:32:42;;;;;;;3.17;2.70;;;24.20;87.30;;;;;;10350336;28;20257;-70
2022/06/26 20:37:42;;;;;;;2.60;2.40;;;24.20;88.20;;;;;;10342100;28;20218;-69
2022/06/26 20:42:46;;;;;;;2.93;2.70;;;24.20;89.30;;;;;;10345992;28;20226;-69
2022/06/26 20:47:46;;;;;;;3.73;2.70;;;24.20;90.20;;;;;;10350411;28;20233;-69
2022/06/26 20:52:47;;;;;;;3.07;2.87;;;24.10;90.80;;;;;;10332807;28;20233;-69
2022/06/26 20:57:50;;;;;;;3.10;2.43;;;24.00;91.30;;;;;;10355532;28;20221;-69
2022/06/26 21:02:52;;;;;;;2.87;2.63;;;24.00;91.90;;;;;;10340965;28;20598;-69
2022/06/26 21:07:53;;;;;;;3.63;2.93;;;23.90;92.60;;;;;;10328421;28;20234;-69
2022/06/26 21:12:55;;;;;;;3.37;2.80;;;23.90;93.50;;;;;;10351865;28;20224;-69
2022/06/26 21:17:58;;;;;;;2.87;2.53;;;23.90;94.20;;;;;;10323486;28;20219;-70
2022/06/26 21:22:59;;;;;;;2.73;2.50;;;23.80;95.60;;;;;;10323387;28;20221;-69
2022/06/26 21:28:00;;;;;;;6.47;2.40;;;23.60;98.50;;;;;;10362237;28;20229;-69
2022/06/26 21:33:01;;;;;;;2.27;2.07;;;23.30;99.90;;;;;;10345556;28;20222;-68
2022/06/26 21:38:01;;;;;;;2.10;1.80;;;23.10;99.90;;;;;;10342325;28;20275;-68
2022/06/26 21:43:03;;;;;;;2.80;2.10;;;23.00;99.90;;;;;;10334313;28;20776;-68
2022/06/26 21:48:04;;;;;;;3.87;2.30;;;22.90;99.90;;;;;;10340257;28;20237;-68
2022/06/26 21:53:05;;;;;;;2.30;2.10;;;22.80;99.90;;;;;;10317402;28;20706;-69
2022/06/26 21:58:06;;;;;;;2.30;2.10;;;22.80;99.90;;;;;;10305878;28;20257;-68
2022/06/26 22:03:09;;;;;;;3.33;2.00;;;22.70;99.90;;;;;;10323669;28;20233;-69
2022/06/26 22:08:10;;;;;;;3.10;2.17;;;22.70;99.90;;;;;;10342015;28;20320;-69
2022/06/26 22:13:11;;;;;;;3.60;2.13;;;22.70;99.90;;;;;;10334993;28;20835;-69
2022/06/26 22:18:12;;;;;;;2.90;2.30;;;22.60;99.90;;;;;;10328865;28;20224;-70
2022/06/26 22:23:12;;;;;;;4.47;2.23;;;22.60;99.90;;;;;;10326079;28;20229;-69
2022/06/26 22:28:13;;;;;;;2.73;2.50;;;22.70;99.90;;;;;;10335710;28;20226;-69
2022/06/26 22:33:14;;;;;;;2.97;2.50;;;22.40;99.90;;;;;;10342271;28;20330;-68
2022/06/26 22:38:14;;;;;;;5.80;2.60;;;22.30;99.90;;;;;;10349698;28;20697;-68
2022/06/26 22:43:15;;;;;;;3.13;2.93;;;22.20;99.90;;;;;;10318836;28;20248;-68
2022/06/26 22:48:15;;;;;;;5.20;2.90;;;22.00;99.90;;;;;;10296491;28;1112867;-69
2022/06/26 22:53:16;;;;;;;8.03;3.40;;;21.80;99.90;;;;;;10331826;28;20217;-68
2022/06/26 22:58:19;;;;;;;7.63;3.20;;;21.70;99.90;;;;;;10350293;28;20308;-69
2022/06/26 23:03:20;;;;;;;7.73;3.23;;;21.60;99.90;;;;;;10343860;28;20213;-69
2022/06/26 23:08:23;;;;;;;5.77;3.30;;;21.40;99.90;;;;;;10355065;28;20434;-69
2022/06/26 23:13:30;;;;;;;8.93;3.10;;;21.10;99.90;;;;;;10337094;28;20222;-69
2022/06/26 23:18:31;;;;;;;4.57;3.10;;;21.00;99.90;;;;;;10343965;28;20300;-70
2022/06/26 23:23:32;;;;;;;5.23;3.27;;;20.90;99.90;;;;;;10341135;28;20244;-69
2022/06/26 23:28:33;;;;;;;4.13;3.30;;;20.70;99.90;;;;;;10346472;28;20309;-70
2022/06/26 23:33:33;;;;;;;5.30;3.27;;;20.40;99.90;;;;;;10348384;28;20588;-67
2022/06/26 23:38:37;;;;;;;4.37;3.00;;;20.30;99.90;;;;;;10340534;28;20301;-68
2022/06/26 23:43:37;;;;;;;5.67;2.90;;;20.10;99.90;;;;;;10343937;28;20257;-69
2022/06/26 23:48:38;;;;;;;7.37;3.10;;;20.00;99.90;;;;;;10337676;28;20659;-69
2022/06/26 23:53:42;;;;;;;6.97;3.37;;;19.90;99.90;;;;;;10344294;28;20221;-69
2022/06/26 23:58:43;;;;;;;5.50;2.87;;;19.70;99.90;;;;;;10331777;28;20218;-69
